Flight Number: EUR1169 Duration: 1:45
Departure: Warsaw Okecie (EPWA) at 08:30 Distance: 623 Nm
Arrival: Moscow Sheremetyevo (UUEE) at 10:15 Equipment: B737

Weather Information
Warszawa-Okecie, Poland (EPWA) 52-10N 020-58E 107M Sep 21, 2017 - 05:00 PM EDT / 2017.09.21 2100 UTC
Wind: from the N (350 degrees) at 10 MPH (9 KT):0
Visibility: greater than 7 mile(s):0
Sky conditions: mostly cloudy Temperature: 53 F (12 C) Dew Point: 51 F (11 C) Relative Humidity: 93% Pressure (altimeter): 29.91 in. Hg (1013 hPa)
ob: EPWA 212100Z 35009KT 9999 BKN005 12/11 Q1013 NOSIG cycle: 21
Sunrise: 04:25 Sunset: 16:32 (UTC)

Moscow / Sheremet'Ye , Russia (UUEE) 55-59N 037-30E Sep 21, 2017 - 05:00 PM EDT / 2017.09.21 2100 UTC
Wind: from the E (090 degrees) at 13 MPH (12 KT):0
Visibility: greater than 7 mile(s):0 Temperature: 50 F (10 C) Dew Point: 46 F (8 C) Relative Humidity: 87% Pressure (altimeter): 30.42 in. Hg (1030 hPa)
ob: UUEE 212100Z 09006MPS CAVOK 10/08 Q1030 R06R/CLRD62 NOSIG cycle: 21
Sunrise: 03:18 Sunset: 15:27 (UTC)

TAF:2017/09/21 21:21 TAF UUEE 211951Z 2121/2221 09007MPS 9999 SCT020 TX16/2212Z TN06/2203Z TEMPO 2121/2124 08012MPS TEMPO 2205/2218 10012MPS

Previous Pireps for this route
Date Aircraft Flight time Fuel used Landing rate On time
2012-11-05B73701.5510436-281No
2013-07-08B73701.5413701-389No
2013-08-09B73701.5110394-263No
2014-03-10B73701.519791-164Yes
2014-04-15B73701.4910284-321Yes
2014-06-01B73701.4010306-203Yes
2015-03-15B7371.55108000Charter
(pireps marked green are flown by you)

Route map